Estación Meteorológica Peña el Pijo (Robertgarden) [ 12/11/18 10:08:55 CET ]

Fecha Hora Presion(HPa) Temp (°C) Humedad % Rocio (°C) Viento ( m/s) Direccion Lluvia 1Hora(mm) Lluvia 24H(mm) LLuvia Total(mm)
2018-Feb-26 01:01:38 1000.800 0.6 70 -4.3         83.39
2018-Feb-26 02:01:43 1000.900 0.4 71 -4.3         83.39
2018-Feb-26 03:03:15 1000.300 -0.1 73 -4.4         83.39
2018-Feb-26 04:01:15 999.700 -0.4 73 -4.7         83.39
2018-Feb-26 05:01:39 999.400 -1.3 73 -5.5         83.39
2018-Feb-26 06:01:27 999.000 -2.1 73 -6.3         83.39
2018-Feb-26 07:01:30 998.900 -2.4 74 -6.4         83.39
2018-Feb-26 08:01:25 998.500 -2.8 74 -6.8         83.39
2018-Feb-26 09:01:41 998.600 0.1 74 -4.0         83.39
2018-Feb-26 10:01:11 998.100 7.8 55 -1.0         83.39
2018-Feb-26 11:01:43 997.300 13.8 33 -2.3         83.39
2018-Feb-26 12:01:52 996.600 15.5 27 -3.6         83.39
2018-Feb-26 13:01:55 995.800 16.2 26 -3.6         83.39
2018-Feb-26 14:01:46 994.700 17.3 24 -3.7         83.39
2018-Feb-26 15:01:57 993.800 17.9 23 -3.7 1.3 SE     83.39
2018-Feb-26 16:01:42 993.000 17.8 24 -3.3         83.39
2018-Feb-26 17:01:54 992.400 16.4 25 -3.9         83.39
2018-Feb-26 18:01:50 992.400 14.4 27 -4.6         83.39
2018-Feb-26 19:01:34 992.900 11.3 34 -4.1         83.39
2018-Feb-26 20:01:40 993.300 7.4 44 -4.1         83.39
2018-Feb-26 21:01:46 993.400 5.0 51 -4.3         83.39
2018-Feb-26 22:01:55 993.800 5.1 55 -3.3         83.39
2018-Feb-26 23:01:47 994.000 4.8 57 -3.1         83.39

Temperatura Máxima:17°    Temperatura Mínima:-2°
Presión Máxima:1000.900 Hpa    Presión Mínima:992.400 Hpa


Volver